Time;durP1;ratioP1;P1;durP2;ratioP2;P2;SDS_P1;SDS_P2;PMS_P1;PMS_P2;Temp;Humidity;BMP_temperature;BMP_pressure;BME280_temperature;BME280_humidity;BME280_pressure;Samples;Min_cycle;Max_cycle;Signal;HPM_P1;HPM_P2
2021/12/05 00:23:26;;;;;;;0.10;0.10;;;;;;;;;;4864685;29;20117;-87
2021/12/05 00:25:54;;;;;;;0.10;0.10;;;;;;;;;;4865372;29;20041;-90
2021/12/05 00:28:43;;;;;;;0.10;0.10;;;;;;;;;;4864612;29;20045;-89
2021/12/05 00:37:14;;;;;;;0.10;0.10;;;;;;;;;;4865838;29;20526;-89
2021/12/05 00:58:28;;;;;;;0.10;0.10;;;;;;;;;;4879417;29;20063;-88
2021/12/05 01:01:10;;;;;;;0.10;0.10;;;;;;;;;;4866433;29;20048;-87
2021/12/05 01:11:46;;;;;;;0.10;0.10;;;;;;;;;;4879180;29;20502;-87
2021/12/05 01:16:43;;;;;;;0.10;0.10;;;;;;;;;;4864323;29;20067;-87
2021/12/05 01:19:09;;;;;;;0.10;0.10;;;;;;;;;;4847915;29;20109;-87
2021/12/05 01:21:36;;;;;;;0.20;0.20;;;;;;;;;;4863194;29;20084;-88
2021/12/05 01:24:34;;;;;;;0.10;0.10;;;;;;;;;;4848093;29;20040;-88
2021/12/05 01:27:14;;;;;;;0.10;0.10;;;;;;;;;;4851688;29;20045;-88
2021/12/05 01:29:48;;;;;;;0.10;0.10;;;;;;;;;;4850169;29;20041;-88
2021/12/05 01:35:30;;;;;;;0.10;0.10;;;;;;;;;;4878873;29;20224;-87
2021/12/05 01:43:06;;;;;;;0.10;0.10;;;;;;;;;;4862506;29;20049;-88
2021/12/05 01:51:17;;;;;;;0.10;0.10;;;;;;;;;;4864180;29;20049;-89
2021/12/05 01:54:36;;;;;;;0.10;0.10;;;;;;;;;;4864671;29;20075;-88
2021/12/05 01:56:51;;;;;;;0.10;0.10;;;;;;;;;;4856770;29;20053;-88
2021/12/05 01:59:53;;;;;;;0.10;0.10;;;;;;;;;;4864261;29;20048;-88
2021/12/05 02:02:57;;;;;;;0.13;0.13;;;;;;;;;;4850755;29;20045;-88
2021/12/05 02:08:45;;;;;;;0.10;0.10;;;;;;;;;;4863793;29;20080;-89
2021/12/05 02:16:44;;;;;;;0.10;0.10;;;;;;;;;;4863817;29;20045;-90
2021/12/05 02:36:24;;;;;;;0.10;0.10;;;;;;;;;;4832049;29;20060;-88
2021/12/05 02:41:33;;;;;;;0.10;0.10;;;;;;;;;;4841630;29;20506;-87
2021/12/05 02:44:03;;;;;;;0.00;0.00;;;;;;;;;;4841925;29;20105;-88
2021/12/05 02:46:30;;;;;;;0.10;0.10;;;;;;;;;;4860806;29;20437;-89
2021/12/05 02:49:01;;;;;;;0.10;0.10;;;;;;;;;;4861300;29;20048;-87
2021/12/05 02:51:27;;;;;;;0.10;0.10;;;;;;;;;;4861678;29;20060;-88
2021/12/05 02:56:31;;;;;;;0.00;0.00;;;;;;;;;;4862320;29;20053;-87
2021/12/05 02:59:03;;;;;;;0.10;0.10;;;;;;;;;;4845953;29;20045;-88
2021/12/05 03:01:41;;;;;;;0.10;0.10;;;;;;;;;;4846564;29;20056;-87
2021/12/05 03:04:08;;;;;;;0.10;0.10;;;;;;;;;;4847156;29;20053;-88
2021/12/05 03:06:35;;;;;;;0.10;0.10;;;;;;;;;;4846035;29;20045;-88
2021/12/05 03:09:02;;;;;;;0.10;0.10;;;;;;;;;;4861114;29;20045;-87
2021/12/05 03:11:28;;;;;;;0.00;0.00;;;;;;;;;;4861240;29;20045;-88
2021/12/05 03:13:54;;;;;;;0.03;0.03;;;;;;;;;;4845823;29;20124;-88
2021/12/05 03:16:20;;;;;;;0.00;0.00;;;;;;;;;;4864461;29;20184;-88
2021/12/05 03:18:47;;;;;;;0.10;0.10;;;;;;;;;;4848695;29;20064;-88
2021/12/05 03:21:13;;;;;;;0.10;0.10;;;;;;;;;;4848899;29;20064;-87
2021/12/05 03:23:39;;;;;;;0.10;0.10;;;;;;;;;;4864282;29;20176;-88
2021/12/05 03:26:06;;;;;;;0.10;0.10;;;;;;;;;;4864258;29;20072;-88
2021/12/05 03:28:32;;;;;;;0.43;0.20;;;;;;;;;;4848824;29;20045;-88
2021/12/05 03:31:01;;;;;;;0.10;0.10;;;;;;;;;;4848679;29;20105;-87
2021/12/05 03:33:27;;;;;;;0.10;0.10;;;;;;;;;;4864417;29;20411;-89
2021/12/05 03:35:53;;;;;;;0.10;0.10;;;;;;;;;;4864517;29;20052;-88
2021/12/05 03:38:19;;;;;;;0.10;0.10;;;;;;;;;;4863983;29;20045;-88
2021/12/05 03:40:45;;;;;;;0.10;0.10;;;;;;;;;;4863793;29;20557;-89
2021/12/05 03:43:12;;;;;;;0.10;0.10;;;;;;;;;;4848614;29;20037;-89
2021/12/05 03:45:41;;;;;;;0.10;0.10;;;;;;;;;;4863871;29;20044;-89
2021/12/05 03:48:07;;;;;;;0.10;0.10;;;;;;;;;;4848614;29;20045;-89
2021/12/05 03:50:33;;;;;;;0.10;0.10;;;;;;;;;;4863963;29;20052;-88
2021/12/05 03:52:59;;;;;;;0.10;0.10;;;;;;;;;;4863948;29;20391;-88
2021/12/05 03:55:24;;;;;;;0.10;0.10;;;;;;;;;;4848655;29;20084;-89
2021/12/05 03:57:50;;;;;;;0.00;0.00;;;;;;;;;;4848289;29;20056;-89
2021/12/05 04:00:21;;;;;;;0.00;0.00;;;;;;;;;;4863761;29;20044;-89
2021/12/05 04:02:48;;;;;;;0.10;0.10;;;;;;;;;;4848184;29;20410;-89
2021/12/05 04:05:14;;;;;;;0.10;0.10;;;;;;;;;;4848249;29;20037;-88
2021/12/05 04:07:40;;;;;;;0.15;0.15;;;;;;;;;;4878838;29;20052;-89
2021/12/05 04:10:06;;;;;;;0.10;0.10;;;;;;;;;;4848195;29;20379;-88
2021/12/05 04:12:32;;;;;;;0.10;0.10;;;;;;;;;;4863406;29;20176;-88
2021/12/05 04:14:58;;;;;;;0.00;0.00;;;;;;;;;;4863554;29;20470;-88
2021/12/05 04:17:24;;;;;;;0.00;0.00;;;;;;;;;;4848225;29;20045;-88
2021/12/05 04:19:51;;;;;;;0.10;0.10;;;;;;;;;;4863133;29;20061;-88
2021/12/05 04:22:17;;;;;;;0.43;0.43;;;;;;;;;;4848091;29;20048;-88
2021/12/05 04:24:44;;;;;;;0.00;0.00;;;;;;;;;;4847842;29;20048;-88
2021/12/05 04:27:10;;;;;;;0.10;0.10;;;;;;;;;;4847732;29;20037;-87
2021/12/05 04:29:37;;;;;;;0.00;0.00;;;;;;;;;;4863394;29;20180;-88
2021/12/05 04:32:03;;;;;;;0.10;0.10;;;;;;;;;;4863138;29;20055;-88
2021/12/05 04:34:29;;;;;;;0.00;0.00;;;;;;;;;;4863086;29;20088;-88
2021/12/05 04:36:56;;;;;;;0.10;0.10;;;;;;;;;;4847579;29;20045;-88
2021/12/05 04:39:22;;;;;;;0.10;0.10;;;;;;;;;;4847802;29;20101;-88
2021/12/05 04:41:48;;;;;;;0.00;0.00;;;;;;;;;;4847512;29;20053;-92
2021/12/05 04:44:15;;;;;;;0.10;0.10;;;;;;;;;;4847919;29;20049;-91
2021/12/05 04:46:41;;;;;;;0.10;0.10;;;;;;;;;;4847769;29;20048;-91
2021/12/05 04:49:07;;;;;;;0.10;0.10;;;;;;;;;;4862898;29;20429;-89
2021/12/05 04:51:34;;;;;;;0.10;0.10;;;;;;;;;;4847247;29;20048;-90
2021/12/05 04:54:01;;;;;;;0.10;0.10;;;;;;;;;;4847817;29;20048;-90
2021/12/05 04:56:27;;;;;;;0.10;0.10;;;;;;;;;;4862686;29;20513;-90
2021/12/05 04:58:53;;;;;;;0.10;0.10;;;;;;;;;;4847578;29;20443;-90
2021/12/05 05:01:19;;;;;;;0.10;0.10;;;;;;;;;;4862726;29;20116;-90
2021/12/05 05:03:46;;;;;;;0.10;0.10;;;;;;;;;;4862594;29;20511;-89
2021/12/05 05:06:15;;;;;;;0.00;0.00;;;;;;;;;;4847264;29;20045;-90
2021/12/05 05:08:41;;;;;;;0.10;0.10;;;;;;;;;;4862804;29;20041;-91
2021/12/05 05:11:10;;;;;;;0.10;0.10;;;;;;;;;;4847025;29;20049;-89
2021/12/05 05:13:36;;;;;;;0.00;0.00;;;;;;;;;;4862515;29;20052;-91
2021/12/05 05:16:04;;;;;;;0.00;0.00;;;;;;;;;;4847301;29;20041;-90
2021/12/05 05:18:38;;;;;;;0.10;0.10;;;;;;;;;;4847310;29;20065;-91
2021/12/05 05:21:15;;;;;;;0.05;0.05;;;;;;;;;;4863436;29;20104;-91
2021/12/05 05:23:58;;;;;;;0.10;0.10;;;;;;;;;;4848385;29;20132;-90
2021/12/05 05:43:09;;;;;;;0.00;0.00;;;;;;;;;;4864061;29;20140;-87
2021/12/05 05:45:49;;;;;;;0.10;0.10;;;;;;;;;;4864215;29;20041;-88
2021/12/05 05:50:56;;;;;;;0.10;0.10;;;;;;;;;;4877083;29;20045;-88
2021/12/05 05:53:22;;;;;;;0.10;0.10;;;;;;;;;;4861782;29;20136;-88
2021/12/05 05:55:49;;;;;;;0.00;0.00;;;;;;;;;;4861616;29;20052;-89
2021/12/05 05:58:16;;;;;;;0.10;0.10;;;;;;;;;;4861491;29;20070;-87
2021/12/05 06:01:03;;;;;;;0.00;0.00;;;;;;;;;;4846488;29;20382;-87
2021/12/05 06:03:30;;;;;;;0.10;0.10;;;;;;;;;;4849501;29;20140;-88
2021/12/05 06:05:57;;;;;;;0.10;0.10;;;;;;;;;;4861470;29;20136;-88
2021/12/05 06:08:25;;;;;;;0.10;0.10;;;;;;;;;;4861673;29;20367;-88
2021/12/05 06:10:55;;;;;;;0.10;0.10;;;;;;;;;;4846092;29;20045;-88
2021/12/05 06:13:21;;;;;;;0.10;0.10;;;;;;;;;;4861628;29;20409;-87
2021/12/05 06:15:48;;;;;;;0.10;0.10;;;;;;;;;;4861106;29;20048;-87
2021/12/05 06:18:13;;;;;;;0.10;0.10;;;;;;;;;;4845724;29;20068;-88
2021/12/05 06:20:40;;;;;;;0.10;0.10;;;;;;;;;;4846131;29;20041;-89
2021/12/05 06:23:06;;;;;;;0.00;0.00;;;;;;;;;;4846131;29;20041;-89
2021/12/05 06:25:37;;;;;;;0.00;0.00;;;;;;;;;;4846104;29;20045;-88
2021/12/05 06:28:08;;;;;;;0.10;0.10;;;;;;;;;;4846453;29;20056;-89
2021/12/05 06:46:28;;;;;;;0.00;0.00;;;;;;;;;;4862218;29;20418;-89
2021/12/05 06:48:54;;;;;;;0.10;0.10;;;;;;;;;;4847449;29;20461;-89
2021/12/05 06:51:24;;;;;;;0.10;0.10;;;;;;;;;;4849668;29;20068;-89
2021/12/05 06:53:51;;;;;;;0.38;0.20;;;;;;;;;;4849542;29;20041;-87
2021/12/05 06:56:17;;;;;;;0.10;0.10;;;;;;;;;;4864896;29;20045;-88
2021/12/05 06:58:43;;;;;;;0.10;0.10;;;;;;;;;;4864526;29;20509;-88
2021/12/05 07:01:09;;;;;;;0.10;0.10;;;;;;;;;;4849146;29;20089;-88
2021/12/05 07:03:36;;;;;;;0.00;0.00;;;;;;;;;;4864816;29;20045;-88
2021/12/05 07:06:11;;;;;;;0.10;0.10;;;;;;;;;;4864908;29;20041;-88
2021/12/05 07:08:39;;;;;;;0.10;0.10;;;;;;;;;;4865701;29;20077;-88
2021/12/05 07:11:17;;;;;;;0.10;0.10;;;;;;;;;;4849526;29;20045;-89
2021/12/05 07:16:16;;;;;;;0.10;0.10;;;;;;;;;;4864785;29;20045;-89
2021/12/05 07:24:17;;;;;;;0.10;0.10;;;;;;;;;;4864609;29;20512;-88
2021/12/05 07:42:52;;;;;;;0.10;0.10;;;;;;;;;;4866202;29;20053;-89
2021/12/05 07:45:22;;;;;;;0.00;0.00;;;;;;;;;;4848597;29;20071;-89
2021/12/05 07:47:52;;;;;;;0.10;0.10;;;;;;;;;;4864084;29;20101;-89
2021/12/05 07:50:22;;;;;;;0.00;0.00;;;;;;;;;;4849357;29;20037;-89
2021/12/05 07:52:52;;;;;;;0.10;0.10;;;;;;;;;;4864588;29;20124;-90
2021/12/05 07:55:24;;;;;;;0.10;0.10;;;;;;;;;;4864612;29;20137;-88
2021/12/05 08:00:51;;;;;;;0.10;0.10;;;;;;;;;;4851175;29;20235;-89
2021/12/05 08:14:31;;;;;;;0.20;0.20;;;;;;;;;;4865967;29;20041;-87
2021/12/05 08:16:58;;;;;;;0.10;0.10;;;;;;;;;;4849895;29;20404;-87
2021/12/05 08:19:24;;;;;;;0.10;0.10;;;;;;;;;;4847937;29;20057;-87
2021/12/05 08:21:55;;;;;;;0.00;0.00;;;;;;;;;;4848171;29;20045;-87
2021/12/05 08:24:24;;;;;;;0.10;0.10;;;;;;;;;;4848568;29;20123;-87
2021/12/05 08:26:53;;;;;;;0.10;0.10;;;;;;;;;;4864019;29;20060;-87
2021/12/05 08:29:22;;;;;;;0.10;0.10;;;;;;;;;;4847798;29;20364;-87
2021/12/05 08:45:32;;;;;;;0.10;0.10;;;;;;;;;;4865438;29;20107;-87
2021/12/05 09:21:31;;;;;;;0.10;0.10;;;;;;;;;;4877652;29;20369;-89
2021/12/05 10:14:53;;;;;;;0.10;0.10;;;;;;;;;;4862035;29;20052;-92
2021/12/05 10:36:08;;;;;;;;;;;;;;;;;;4868065;29;20116;-86
2021/12/05 10:38:43;;;;;;;0.10;0.10;;;;;;;;;;4867155;29;20388;-89
2021/12/05 10:44:06;;;;;;;0.10;0.10;;;;;;;;;;4869491;29;20049;-89
2021/12/05 10:46:32;;;;;;;0.10;0.10;;;;;;;;;;4851845;29;20534;-87
2021/12/05 10:49:02;;;;;;;0.20;0.20;;;;;;;;;;4867095;29;20076;-88
2021/12/05 10:51:29;;;;;;;0.10;0.10;;;;;;;;;;4867653;29;20080;-90
2021/12/05 10:54:03;;;;;;;0.10;0.10;;;;;;;;;;4851928;29;20045;-88
2021/12/05 10:56:33;;;;;;;0.20;0.20;;;;;;;;;;4867140;29;20045;-89
2021/12/05 10:58:59;;;;;;;0.10;0.10;;;;;;;;;;4882480;29;20045;-88
2021/12/05 11:01:25;;;;;;;0.10;0.10;;;;;;;;;;4866895;29;20196;-88
2021/12/05 11:03:56;;;;;;;0.10;0.10;;;;;;;;;;4882477;29;20157;-88
2021/12/05 11:06:22;;;;;;;0.10;0.10;;;;;;;;;;4867495;29;20045;-89
2021/12/05 11:08:48;;;;;;;0.10;0.10;;;;;;;;;;4882436;29;20052;-88
2021/12/05 11:11:16;;;;;;;0.10;0.10;;;;;;;;;;4866480;29;20055;-88
2021/12/05 11:13:46;;;;;;;0.00;0.00;;;;;;;;;;4851921;29;20450;-87
2021/12/05 11:16:31;;;;;;;0.10;0.10;;;;;;;;;;4851857;29;20053;-88
2021/12/05 11:18:57;;;;;;;0.05;0.05;;;;;;;;;;4866738;29;20141;-88
2021/12/05 11:21:24;;;;;;;0.10;0.10;;;;;;;;;;4866617;29;20057;-88
2021/12/05 11:24:12;;;;;;;0.10;0.10;;;;;;;;;;4851513;29;20052;-88
2021/12/05 11:26:39;;;;;;;0.10;0.10;;;;;;;;;;4867234;29;20045;-88
2021/12/05 11:29:06;;;;;;;0.10;0.10;;;;;;;;;;4866951;29;20073;-87
2021/12/05 11:31:32;;;;;;;0.08;0.08;;;;;;;;;;4851712;29;20060;-88
2021/12/05 11:33:58;;;;;;;0.00;0.00;;;;;;;;;;4851137;29;20049;-86
2021/12/05 11:36:25;;;;;;;0.10;0.10;;;;;;;;;;4847929;29;20064;-87
2021/12/05 11:38:54;;;;;;;0.03;0.03;;;;;;;;;;4864110;29;20044;-87
2021/12/05 11:41:20;;;;;;;0.10;0.10;;;;;;;;;;4848967;29;20128;-86
2021/12/05 11:43:51;;;;;;;0.10;0.10;;;;;;;;;;4863874;29;20048;-88
2021/12/05 11:46:27;;;;;;;0.10;0.10;;;;;;;;;;4879289;29;20473;-88
2021/12/05 11:48:54;;;;;;;0.10;0.10;;;;;;;;;;4863863;29;20127;-88
2021/12/05 11:51:30;;;;;;;0.20;0.20;;;;;;;;;;4879446;29;20045;-87
2021/12/05 11:54:05;;;;;;;0.10;0.10;;;;;;;;;;4863902;29;20507;-87
2021/12/05 11:56:31;;;;;;;0.10;0.10;;;;;;;;;;4849966;29;20049;-86
2021/12/05 11:59:03;;;;;;;0.10;0.10;;;;;;;;;;4882379;29;20065;-87
2021/12/05 12:01:34;;;;;;;0.00;0.00;;;;;;;;;;4896185;29;20045;-88
2021/12/05 12:04:00;;;;;;;0.10;0.10;;;;;;;;;;4887726;29;20041;-87
2021/12/05 12:06:26;;;;;;;0.10;0.10;;;;;;;;;;4847959;29;20124;-87
2021/12/05 12:08:54;;;;;;;0.10;0.10;;;;;;;;;;4863641;29;20338;-88
2021/12/05 12:11:20;;;;;;;0.10;0.10;;;;;;;;;;4862884;29;20378;-88
2021/12/05 12:13:47;;;;;;;0.10;0.10;;;;;;;;;;4863166;29;20052;-88
2021/12/05 12:16:16;;;;;;;0.10;0.10;;;;;;;;;;4848896;29;20056;-87
2021/12/05 12:18:45;;;;;;;0.10;0.10;;;;;;;;;;4862670;29;20061;-87
2021/12/05 12:21:13;;;;;;;0.10;0.10;;;;;;;;;;4863286;29;20055;-87
2021/12/05 12:23:39;;;;;;;0.10;0.10;;;;;;;;;;4847924;29;20453;-87
2021/12/05 12:26:05;;;;;;;0.00;0.00;;;;;;;;;;4863180;29;20037;-88
2021/12/05 12:28:31;;;;;;;0.10;0.10;;;;;;;;;;4862996;29;20409;-88
2021/12/05 12:31:02;;;;;;;0.20;0.20;;;;;;;;;;4848738;29;20052;-87
2021/12/05 12:33:29;;;;;;;0.10;0.10;;;;;;;;;;4847835;29;20446;-88
2021/12/05 12:35:55;;;;;;;0.10;0.10;;;;;;;;;;4847703;29;20510;-88
2021/12/05 12:38:26;;;;;;;0.00;0.00;;;;;;;;;;4847528;29;20565;-88
2021/12/05 12:40:53;;;;;;;0.10;0.10;;;;;;;;;;4847069;29;20123;-87
2021/12/05 12:43:25;;;;;;;0.10;0.10;;;;;;;;;;4862653;29;20045;-86
2021/12/05 12:45:51;;;;;;;0.10;0.10;;;;;;;;;;4877855;29;20041;-87
2021/12/05 12:48:18;;;;;;;0.10;0.10;;;;;;;;;;4876984;29;20045;-89
2021/12/05 12:50:52;;;;;;;0.10;0.10;;;;;;;;;;4864131;29;20045;-87
2021/12/05 12:53:26;;;;;;;0.10;0.10;;;;;;;;;;4877971;29;20045;-89
2021/12/05 12:55:57;;;;;;;0.10;0.10;;;;;;;;;;4847268;29;20076;-88
2021/12/05 12:58:34;;;;;;;0.10;0.10;;;;;;;;;;4862593;29;20115;-89
2021/12/05 13:01:01;;;;;;;0.10;0.10;;;;;;;;;;4846996;29;20045;-87
2021/12/05 13:03:52;;;;;;;0.10;0.10;;;;;;;;;;4862504;29;20168;-87
2021/12/05 13:11:48;;;;;;;0.10;0.10;;;;;;;;;;4864887;29;20049;-89
2021/12/05 13:14:14;;;;;;;0.17;0.17;;;;;;;;;;4846849;29;20049;-88
2021/12/05 13:16:40;;;;;;;0.10;0.10;;;;;;;;;;4861833;29;20136;-88
2021/12/05 13:19:10;;;;;;;0.10;0.10;;;;;;;;;;4846533;29;20057;-86
2021/12/05 13:21:39;;;;;;;0.10;0.10;;;;;;;;;;4877105;29;20064;-87
2021/12/05 13:24:26;;;;;;;0.10;0.10;;;;;;;;;;4846787;29;20401;-88
2021/12/05 13:27:03;;;;;;;0.03;0.03;;;;;;;;;;4861363;29;20135;-90
2021/12/05 13:29:48;;;;;;;0.65;0.43;;;;;;;;;;4846765;29;20117;-89
2021/12/05 13:32:21;;;;;;;0.20;0.20;;;;;;;;;;4846755;29;20131;-87
2021/12/05 13:34:51;;;;;;;0.10;0.10;;;;;;;;;;4847240;29;20132;-88
2021/12/05 13:37:20;;;;;;;0.10;0.10;;;;;;;;;;4861655;29;20049;-88
2021/12/05 13:40:05;;;;;;;0.10;0.10;;;;;;;;;;4877524;29;20048;-89
2021/12/05 13:42:39;;;;;;;0.10;0.10;;;;;;;;;;4861555;29;20560;-88
2021/12/05 13:45:09;;;;;;;0.10;0.10;;;;;;;;;;4861465;29;20060;-87
2021/12/05 13:47:38;;;;;;;0.10;0.10;;;;;;;;;;4861745;29;20040;-85
2021/12/05 13:50:21;;;;;;;0.10;0.10;;;;;;;;;;4861678;29;20051;-86
2021/12/05 13:52:53;;;;;;;0.10;0.10;;;;;;;;;;4861826;29;20394;-88
2021/12/05 13:55:39;;;;;;;0.10;0.10;;;;;;;;;;4877270;29;20045;-90
2021/12/05 13:58:18;;;;;;;0.10;0.10;;;;;;;;;;4861568;29;20069;-89
2021/12/05 14:00:46;;;;;;;0.10;0.10;;;;;;;;;;4861962;29;20041;-89
2021/12/05 14:03:12;;;;;;;0.08;0.08;;;;;;;;;;4861820;29;20394;-89
2021/12/05 14:05:45;;;;;;;0.10;0.10;;;;;;;;;;4846503;29;20405;-88
2021/12/05 14:08:47;;;;;;;0.10;0.10;;;;;;;;;;4847436;29;20282;-95
2021/12/05 14:11:16;;;;;;;0.10;0.10;;;;;;;;;;4878701;29;20037;-95
2021/12/05 14:13:42;;;;;;;0.10;0.10;;;;;;;;;;4846679;29;20041;-90
2021/12/05 14:22:08;;;;;;;0.10;0.10;;;;;;;;;;4897309;23;20056;-93
2021/12/05 14:24:39;;;;;;;0.03;0.03;;;;;;;;;;4847200;29;20060;-92
2021/12/05 14:27:06;;;;;;;0.10;0.10;;;;;;;;;;4843776;29;20132;-92
2021/12/05 14:29:52;;;;;;;0.10;0.10;;;;;;;;;;4844346;29;20426;-91
2021/12/05 14:32:25;;;;;;;0.00;0.00;;;;;;;;;;4843963;29;20053;-91
2021/12/05 14:34:56;;;;;;;0.03;0.03;;;;;;;;;;4843638;29;20382;-92
2021/12/05 14:37:33;;;;;;;0.10;0.10;;;;;;;;;;4843232;29;20045;-93
2021/12/05 14:40:15;;;;;;;0.10;0.10;;;;;;;;;;4843262;29;20505;-93
2021/12/05 14:42:45;;;;;;;0.10;0.10;;;;;;;;;;4858234;29;20046;-94
2021/12/05 14:45:13;;;;;;;0.10;0.10;;;;;;;;;;4843972;29;20076;-93
2021/12/05 14:47:40;;;;;;;0.10;0.10;;;;;;;;;;4843302;29;20045;-94
2021/12/05 14:50:20;;;;;;;0.10;0.10;;;;;;;;;;4842975;29;20041;-94
2021/12/05 14:52:48;;;;;;;0.10;0.10;;;;;;;;;;4859030;29;20057;-92
2021/12/05 14:55:17;;;;;;;0.10;0.10;;;;;;;;;;4843715;29;20173;-93
2021/12/05 14:57:48;;;;;;;0.10;0.10;;;;;;;;;;4843895;29;20101;-93
2021/12/05 15:00:17;;;;;;;0.10;0.10;;;;;;;;;;4843881;29;20150;-88
2021/12/05 15:02:43;;;;;;;0.20;0.20;;;;;;;;;;4842529;29;20494;-92
2021/12/05 15:05:13;;;;;;;0.10;0.10;;;;;;;;;;4843195;29;20448;-93
2021/12/05 15:07:41;;;;;;;0.10;0.10;;;;;;;;;;4842762;29;20069;-91
2021/12/05 15:10:07;;;;;;;0.10;0.10;;;;;;;;;;4843192;29;20045;-89
2021/12/05 15:12:34;;;;;;;0.30;0.20;;;;;;;;;;4845041;29;20064;-89
2021/12/05 15:15:02;;;;;;;0.10;0.10;;;;;;;;;;4846122;29;20052;-94
2021/12/05 15:17:29;;;;;;;0.22;0.22;;;;;;;;;;4861676;29;20052;-90
2021/12/05 15:19:57;;;;;;;0.20;0.20;;;;;;;;;;4845789;29;20133;-90
2021/12/05 15:22:23;;;;;;;0.10;0.10;;;;;;;;;;4861552;29;20080;-90
2021/12/05 15:24:56;;;;;;;0.10;0.10;;;;;;;;;;4845708;29;20485;-89
2021/12/05 15:27:23;;;;;;;0.10;0.10;;;;;;;;;;4860788;29;20069;-89
2021/12/05 15:29:51;;;;;;;0.10;0.10;;;;;;;;;;4845379;29;20545;-89
2021/12/05 15:32:18;;;;;;;0.10;0.10;;;;;;;;;;4846003;29;20148;-90
2021/12/05 15:35:04;;;;;;;0.10;0.10;;;;;;;;;;4846590;29;20045;-94
2021/12/05 15:37:30;;;;;;;0.10;0.10;;;;;;;;;;4861415;29;20041;-92
2021/12/05 15:39:59;;;;;;;0.10;0.10;;;;;;;;;;4846343;29;20047;-93
2021/12/05 15:42:29;;;;;;;0.10;0.10;;;;;;;;;;4846686;29;20124;-90
2021/12/05 15:44:56;;;;;;;0.73;0.20;;;;;;;;;;4845741;29;20168;-88
2021/12/05 15:47:23;;;;;;;0.10;0.10;;;;;;;;;;4845808;29;20045;-89
2021/12/05 15:50:08;;;;;;;0.10;0.10;;;;;;;;;;4846567;29;20098;-89
2021/12/05 15:52:54;;;;;;;0.30;0.30;;;;;;;;;;4861417;29;20124;-88
2021/12/05 15:55:22;;;;;;;0.00;0.00;;;;;;;;;;4845845;29;20060;-87
2021/12/05 15:58:09;;;;;;;0.10;0.10;;;;;;;;;;4846168;29;20052;-88
2021/12/05 16:00:42;;;;;;;0.10;0.10;;;;;;;;;;4845719;29;20485;-88
2021/12/05 16:03:09;;;;;;;0.10;0.10;;;;;;;;;;4845735;29;20117;-88
2021/12/05 16:05:35;;;;;;;0.10;0.10;;;;;;;;;;4845921;29;20042;-88
2021/12/05 16:08:02;;;;;;;0.10;0.10;;;;;;;;;;4845786;29;20034;-87
2021/12/05 16:10:28;;;;;;;0.10;0.10;;;;;;;;;;4861202;29;20551;-87
2021/12/05 16:12:54;;;;;;;0.10;0.10;;;;;;;;;;4846324;29;20217;-87
2021/12/05 16:15:21;;;;;;;0.10;0.10;;;;;;;;;;4860917;29;20049;-88
2021/12/05 16:17:57;;;;;;;0.10;0.10;;;;;;;;;;4845984;29;20077;-88
2021/12/05 16:20:27;;;;;;;0.10;0.10;;;;;;;;;;4846011;29;20242;-87
2021/12/05 16:22:55;;;;;;;0.10;0.10;;;;;;;;;;4860958;29;20049;-89
2021/12/05 16:25:22;;;;;;;0.10;0.10;;;;;;;;;;4860731;29;20090;-87
2021/12/05 16:27:50;;;;;;;0.10;0.10;;;;;;;;;;4845530;29;20042;-87
2021/12/05 16:30:21;;;;;;;0.10;0.10;;;;;;;;;;4845436;29;20052;-87
2021/12/05 16:32:47;;;;;;;0.10;0.10;;;;;;;;;;4845383;29;20060;-87
2021/12/05 16:35:23;;;;;;;0.10;0.10;;;;;;;;;;4845257;29;20049;-86
2021/12/05 16:37:49;;;;;;;0.13;0.13;;;;;;;;;;4846953;29;20042;-88
2021/12/05 16:40:15;;;;;;;0.10;0.10;;;;;;;;;;4845696;29;20045;-88
2021/12/05 16:42:44;;;;;;;0.10;0.10;;;;;;;;;;4846519;29;20045;-92
2021/12/05 16:45:41;;;;;;;0.10;0.10;;;;;;;;;;4846792;29;20507;-94
2021/12/05 16:48:31;;;;;;;0.10;0.10;;;;;;;;;;4860446;29;20080;-93
2021/12/05 16:51:22;;;;;;;1.15;0.20;;;;;;;;;;4862331;29;20054;-94
2021/12/05 16:53:50;;;;;;;0.10;0.10;;;;;;;;;;4862600;29;20045;-91
2021/12/05 16:56:38;;;;;;;0.25;0.25;;;;;;;;;;4845793;29;20046;-91
2021/12/05 16:59:05;;;;;;;0.10;0.10;;;;;;;;;;4845202;29;20046;-90
2021/12/05 17:01:31;;;;;;;0.10;0.10;;;;;;;;;;4845211;29;20074;-90
2021/12/05 17:03:57;;;;;;;0.25;0.25;;;;;;;;;;4845189;29;20489;-90
2021/12/05 17:06:23;;;;;;;0.10;0.10;;;;;;;;;;4844800;29;20056;-89
2021/12/05 17:08:50;;;;;;;0.15;0.15;;;;;;;;;;4844788;29;20045;-87
2021/12/05 17:11:17;;;;;;;0.10;0.10;;;;;;;;;;4845261;29;20113;-90
2021/12/05 17:13:47;;;;;;;0.38;0.38;;;;;;;;;;4844869;29;20109;-90
2021/12/05 17:16:18;;;;;;;0.10;0.10;;;;;;;;;;4844958;29;20045;-91
2021/12/05 17:18:46;;;;;;;0.25;0.20;;;;;;;;;;4845212;29;20137;-87
2021/12/05 17:21:15;;;;;;;0.10;0.10;;;;;;;;;;4844892;29;20096;-94
2021/12/05 17:23:42;;;;;;;0.10;0.10;;;;;;;;;;4860504;29;20401;-90
2021/12/05 17:26:17;;;;;;;0.17;0.17;;;;;;;;;;4845296;29;20038;-91
2021/12/05 17:28:45;;;;;;;0.10;0.10;;;;;;;;;;4860556;29;20485;-92
2021/12/05 17:31:13;;;;;;;0.10;0.10;;;;;;;;;;4845171;29;20044;-91
2021/12/05 17:33:40;;;;;;;0.20;0.20;;;;;;;;;;4844669;29;20474;-92
2021/12/05 17:36:19;;;;;;;0.10;0.10;;;;;;;;;;4845324;29;20478;-91
2021/12/05 17:38:45;;;;;;;0.10;0.10;;;;;;;;;;4859921;29;20174;-90
2021/12/05 17:41:10;;;;;;;0.10;0.10;;;;;;;;;;4844771;29;20085;-91
2021/12/05 17:43:36;;;;;;;0.82;0.15;;;;;;;;;;4845307;29;20049;-92
2021/12/05 17:46:02;;;;;;;0.43;0.28;;;;;;;;;;4844589;29;20572;-90
2021/12/05 17:48:33;;;;;;;0.10;0.10;;;;;;;;;;4844456;29;20136;-92
2021/12/05 17:51:03;;;;;;;0.45;0.45;;;;;;;;;;4845074;29;20042;-90
2021/12/05 17:53:31;;;;;;;2.70;0.40;;;;;;;;;;4845813;29;20056;-91
2021/12/05 17:56:12;;;;;;;0.10;0.10;;;;;;;;;;4846339;29;20105;-91
2021/12/05 17:58:53;;;;;;;0.10;0.10;;;;;;;;;;4845173;29;20046;-87
2021/12/05 18:04:05;;;;;;;0.20;0.20;;;;;;;;;;4846397;29;20482;-89
2021/12/05 18:06:32;;;;;;;0.10;0.10;;;;;;;;;;4844330;29;20092;-88
2021/12/05 18:08:58;;;;;;;0.10;0.10;;;;;;;;;;4844113;29;20053;-87
2021/12/05 18:11:25;;;;;;;0.10;0.10;;;;;;;;;;4855768;29;20045;-90
2021/12/05 18:13:54;;;;;;;0.20;0.20;;;;;;;;;;4862834;29;20117;-88
2021/12/05 18:16:23;;;;;;;0.10;0.10;;;;;;;;;;4847419;29;20096;-89
2021/12/05 18:18:51;;;;;;;0.43;0.43;;;;;;;;;;4847321;29;20080;-88
2021/12/05 18:21:18;;;;;;;0.10;0.10;;;;;;;;;;4846989;29;20199;-90
2021/12/05 18:23:44;;;;;;;1.90;0.55;;;;;;;;;;4847098;29;20041;-87
2021/12/05 18:26:11;;;;;;;0.10;0.10;;;;;;;;;;4862106;29;20464;-89
2021/12/05 18:28:38;;;;;;;0.90;0.28;;;;;;;;;;4846897;29;20097;-89
2021/12/05 18:31:04;;;;;;;0.10;0.10;;;;;;;;;;4846702;29;20052;-89
2021/12/05 18:33:30;;;;;;;0.30;0.20;;;;;;;;;;4849151;29;20046;-88
2021/12/05 18:35:56;;;;;;;0.10;0.10;;;;;;;;;;4843854;29;20078;-89
2021/12/05 18:38:24;;;;;;;0.28;0.28;;;;;;;;;;4843858;29;20082;-89
2021/12/05 18:40:51;;;;;;;0.25;0.22;;;;;;;;;;4843967;29;20049;-89
2021/12/05 18:43:21;;;;;;;0.50;0.25;;;;;;;;;;4843524;29;20094;-88
2021/12/05 18:45:47;;;;;;;0.20;0.20;;;;;;;;;;4847085;29;20041;-89
2021/12/05 18:48:13;;;;;;;0.20;0.20;;;;;;;;;;4846944;29;20051;-89
2021/12/05 18:50:38;;;;;;;0.52;0.43;;;;;;;;;;4847349;29;20127;-89
2021/12/05 18:53:04;;;;;;;0.20;0.20;;;;;;;;;;4847376;29;20046;-87
2021/12/05 18:55:33;;;;;;;0.05;0.05;;;;;;;;;;4847134;29;20520;-88
2021/12/05 18:58:02;;;;;;;5.05;0.65;;;;;;;;;;4862076;29;20050;-88
2021/12/05 19:00:34;;;;;;;0.10;0.10;;;;;;;;;;4846867;29;20393;-89
2021/12/05 19:05:54;;;;;;;0.35;0.35;;;;;;;;;;4849010;29;20052;-91
2021/12/05 19:13:38;;;;;;;0.90;0.55;;;;;;;;;;4848256;29;20049;-90
2021/12/05 19:16:06;;;;;;;1.25;0.50;;;;;;;;;;4846391;29;20140;-91
2021/12/05 19:18:32;;;;;;;0.40;0.40;;;;;;;;;;4861043;29;20118;-91
2021/12/05 19:20:59;;;;;;;0.20;0.20;;;;;;;;;;4844901;29;20209;-93
2021/12/05 19:23:26;;;;;;;0.10;0.10;;;;;;;;;;4861246;29;20405;-89
2021/12/05 19:25:52;;;;;;;0.50;0.50;;;;;;;;;;4845818;29;20045;-89
2021/12/05 19:28:18;;;;;;;0.80;0.50;;;;;;;;;;4846557;29;20042;-90
2021/12/05 19:30:46;;;;;;;0.20;0.20;;;;;;;;;;4848889;29;20461;-90
2021/12/05 19:33:12;;;;;;;0.20;0.13;;;;;;;;;;4848921;29;20052;-90
2021/12/05 19:35:39;;;;;;;0.10;0.10;;;;;;;;;;4848847;29;20060;-89
2021/12/05 19:38:05;;;;;;;0.10;0.10;;;;;;;;;;4848805;29;20048;-90
2021/12/05 19:40:31;;;;;;;0.20;0.20;;;;;;;;;;4849184;29;20127;-90
2021/12/05 19:42:57;;;;;;;0.20;0.10;;;;;;;;;;4849046;29;20147;-90
2021/12/05 19:45:24;;;;;;;0.10;0.10;;;;;;;;;;4848848;29;20045;-90
2021/12/05 19:47:50;;;;;;;0.13;0.13;;;;;;;;;;4864025;29;20137;-91
2021/12/05 19:50:16;;;;;;;0.30;0.30;;;;;;;;;;4863981;29;20132;-89
2021/12/05 19:52:43;;;;;;;0.22;0.22;;;;;;;;;;4848385;29;20052;-89
2021/12/05 19:55:09;;;;;;;0.40;0.30;;;;;;;;;;4848527;29;20044;-89
2021/12/05 19:57:35;;;;;;;0.65;0.35;;;;;;;;;;4847878;29;20041;-89
2021/12/05 20:00:02;;;;;;;0.20;0.20;;;;;;;;;;4848562;29;20053;-89
2021/12/05 20:02:28;;;;;;;0.03;0.03;;;;;;;;;;4863781;29;20052;-89
2021/12/05 20:04:54;;;;;;;0.38;0.38;;;;;;;;;;4848532;29;20057;-89
2021/12/05 20:07:23;;;;;;;0.10;0.10;;;;;;;;;;4848698;29;20053;-88
2021/12/05 20:09:49;;;;;;;0.13;0.13;;;;;;;;;;4863760;29;20485;-89
2021/12/05 20:12:15;;;;;;;0.10;0.10;;;;;;;;;;4848883;29;20065;-89
2021/12/05 20:14:41;;;;;;;0.47;0.20;;;;;;;;;;4846426;29;20135;-90
2021/12/05 20:17:07;;;;;;;0.10;0.10;;;;;;;;;;4841484;29;20132;-90